Terminal Aerodrome Forecast
Issued by NWS Blacksburg, VA

Home | Current Version | Previous Version | Text Only | Print | Product List | Glossary On
Versions: 1 2 3 4 5 6 7 8 9 10 11 12
000
FTUS41 KRNK 011724
TAFDAN
TAF
KDAN 011724Z 0118/0218 22020G35KT P6SM SCT060
     FM012100 23015G25KT 6SM SHRA VCTS BKN060CB
      TEMPO 0121/0122 2SM TSRA OVC035CB
     FM012300 23012KT P6SM -SHRA OVC050
     FM020900 26012G25KT P6SM SCT100=

USA.gov is the U.S. government's official web portal to all federal, state and local government web resources and services.